createdAt,value
2022-08-01T00:00:15.185Z,1.00
2022-08-01T00:01:18.367Z,0.57
2022-08-01T00:02:21.601Z,0.00
2022-08-01T00:03:24.646Z,0.00
2022-08-01T00:04:27.622Z,0.33
2022-08-01T00:05:30.984Z,1.00
2022-08-01T00:06:34.138Z,0.57
2022-08-01T00:07:37.104Z,0.00
2022-08-01T00:08:40.129Z,0.33
2022-08-01T00:09:43.206Z,0.57
2022-08-01T00:10:46.284Z,0.00
2022-08-01T00:11:49.217Z,0.43
2022-08-01T00:12:53.460Z,0.50
2022-08-01T00:13:56.567Z,0.00
2022-08-01T00:14:59.477Z,0.00
2022-08-01T00:16:02.395Z,0.00
2022-08-01T00:17:07.469Z,0.00
2022-08-01T00:18:09.478Z,0.00
2022-08-01T00:19:12.558Z,0.00
2022-08-01T00:20:15.433Z,0.00
2022-08-01T00:21:18.513Z,0.00
2022-08-01T00:22:21.582Z,0.00
2022-08-01T00:23:24.680Z,0.00
2022-08-01T00:24:27.745Z,0.43
2022-08-01T00:25:33.996Z,1.43
2022-08-01T00:26:34.822Z,0.62
2022-08-01T00:27:38.087Z,0.00
2022-08-01T00:28:41.043Z,0.00
2022-08-01T00:30:09.765Z,0.00
2022-08-01T00:30:47.972Z,1.12
2022-08-01T00:31:51.047Z,1.33
2022-08-01T00:32:54.132Z,1.67
2022-08-01T00:33:57.104Z,0.57
2022-08-01T00:35:00.043Z,0.00
2022-08-01T00:36:03.057Z,0.00
2022-08-01T00:37:06.040Z,0.00
2022-08-01T00:38:09.124Z,0.00
2022-08-01T00:39:12.207Z,0.00
2022-08-01T00:40:15.389Z,0.00
2022-08-01T00:41:18.351Z,0.29
2022-08-01T00:42:21.337Z,0.00
2022-08-01T00:43:24.512Z,0.00
2022-08-01T00:44:27.490Z,0.00
2022-08-01T00:45:30.668Z,0.00
2022-08-01T00:46:33.763Z,0.00
2022-08-01T00:47:36.878Z,0.43
2022-08-01T00:48:39.805Z,0.67
2022-08-01T00:49:42.841Z,0.00
2022-08-01T00:50:45.764Z,0.00
2022-08-01T00:51:48.631Z,0.00
2022-08-01T00:52:51.755Z,0.00
2022-08-01T00:53:54.960Z,0.00
2022-08-01T00:54:57.985Z,0.00
2022-08-01T00:56:01.264Z,0.00
2022-08-01T00:57:04.329Z,0.00
2022-08-01T00:58:07.272Z,0.00
2022-08-01T00:59:11.422Z,0.43
2022-08-01T01:00:14.634Z,0.67
2022-08-01T01:01:18.350Z,0.00
2022-08-01T01:02:21.272Z,0.00
2022-08-01T01:03:55.910Z,0.00
2022-08-01T01:04:28.457Z,0.00
2022-08-01T01:05:35.754Z,0.00
2022-08-01T01:06:35.696Z,1.00
2022-08-01T01:07:38.617Z,3.33
2022-08-01T01:08:42.922Z,4.62
2022-08-01T01:09:45.906Z,4.71
2022-08-01T01:10:48.813Z,1.33
2022-08-01T01:11:51.856Z,0.00
2022-08-01T01:12:55.141Z,0.43
2022-08-01T01:13:58.129Z,0.57
2022-08-01T01:15:01.093Z,0.00
2022-08-01T01:16:04.174Z,0.33
2022-08-01T01:17:07.363Z,1.86
2022-08-01T01:18:10.374Z,1.14
2022-08-01T01:19:13.514Z,1.00
2022-08-01T01:20:16.695Z,2.67
2022-08-01T01:21:22.652Z,5.14
2022-08-01T01:22:24.085Z,2.12
2022-08-01T01:23:27.259Z,1.00
2022-08-01T01:24:30.246Z,2.29
2022-08-01T01:25:33.334Z,1.57
2022-08-01T01:26:36.304Z,0.33
2022-08-01T01:27:39.381Z,0.00
2022-08-01T01:28:42.555Z,0.00
2022-08-01T01:29:59.773Z,0.14
2022-08-01T01:30:49.739Z,0.50
2022-08-01T01:31:52.831Z,0.33
2022-08-01T01:32:55.890Z,2.33
2022-08-01T01:33:58.875Z,3.67
2022-08-01T01:35:01.856Z,1.43
2022-08-01T01:36:11.484Z,1.86
2022-08-01T01:37:09.763Z,2.57
2022-08-01T01:38:12.845Z,1.57
2022-08-01T01:39:15.917Z,1.43
2022-08-01T01:40:19.017Z,0.57
2022-08-01T01:41:22.060Z,0.29
2022-08-01T01:42:25.165Z,0.00
2022-08-01T01:43:28.994Z,0.00
2022-08-01T01:44:32.231Z,0.00
2022-08-01T01:45:35.207Z,0.00
2022-08-01T01:46:38.282Z,0.00
2022-08-01T01:47:41.167Z,1.67
2022-08-01T01:48:44.260Z,3.57
2022-08-01T01:49:47.326Z,1.57
2022-08-01T01:50:50.402Z,2.33
2022-08-01T01:51:53.341Z,3.33
2022-08-01T01:52:57.488Z,0.00
2022-08-01T01:54:00.463Z,0.00
2022-08-01T01:55:03.507Z,0.43
2022-08-01T01:56:06.533Z,0.17
2022-08-01T01:57:12.781Z,0.43
2022-08-01T01:58:15.858Z,1.00
2022-08-01T01:59:19.037Z,0.17
2022-08-01T02:00:23.135Z,0.00
2022-08-01T02:01:58.047Z,0.33
2022-08-01T02:02:30.565Z,1.29
2022-08-01T02:03:33.718Z,0.67
2022-08-01T02:04:36.888Z,0.00
2022-08-01T02:05:39.959Z,0.00
2022-08-01T02:06:43.263Z,0.00
2022-08-01T02:07:46.543Z,0.43
2022-08-01T02:08:50.532Z,0.50
2022-08-01T02:09:53.829Z,0.00
2022-08-01T02:10:56.912Z,0.43
2022-08-01T02:12:08.892Z,1.00
2022-08-01T02:13:04.088Z,0.75
2022-08-01T02:14:07.272Z,0.00
2022-08-01T02:15:10.249Z,0.67
2022-08-01T02:16:13.727Z,1.00
2022-08-01T02:17:16.923Z,1.00
2022-08-01T02:18:20.003Z,0.71
2022-08-01T02:19:24.441Z,1.00
2022-08-01T02:20:27.489Z,0.57
2022-08-01T02:21:30.574Z,0.43
2022-08-01T02:22:33.751Z,0.43
2022-08-01T02:23:36.926Z,1.00
2022-08-01T02:24:39.921Z,1.00
2022-08-01T02:26:10.976Z,0.57
2022-08-01T02:26:47.186Z,0.00
2022-08-01T02:27:50.163Z,0.00
2022-08-01T02:28:53.353Z,0.00
2022-08-01T02:29:56.281Z,0.00
2022-08-01T02:30:59.094Z,0.57
2022-08-01T02:32:02.251Z,0.33
2022-08-01T02:33:05.249Z,1.00
2022-08-01T02:34:09.448Z,1.00
2022-08-01T02:35:12.644Z,1.00
2022-08-01T02:36:30.375Z,1.00
2022-08-01T02:37:20.023Z,1.00
2022-08-01T02:38:23.104Z,0.57
2022-08-01T02:39:26.286Z,0.33
2022-08-01T02:40:29.587Z,1.33
2022-08-01T02:41:32.874Z,1.67
2022-08-01T02:42:36.157Z,1.00
2022-08-01T02:43:39.739Z,0.50
2022-08-01T02:44:43.129Z,1.00
2022-08-01T02:45:46.506Z,1.00
2022-08-01T02:46:49.687Z,0.14
2022-08-01T02:47:52.871Z,0.43
2022-08-01T02:48:55.994Z,1.57
2022-08-01T02:49:59.354Z,1.67
2022-08-01T02:51:02.221Z,1.00
2022-08-01T02:52:06.929Z,1.29
2022-08-01T02:53:10.326Z,1.00
2022-08-01T02:54:13.705Z,0.43
2022-08-01T02:55:16.842Z,1.00
2022-08-01T02:56:20.072Z,1.00
2022-08-01T02:57:23.146Z,1.00
2022-08-01T02:58:29.049Z,4.25
2022-08-01T02:59:31.650Z,5.75
2022-08-01T03:00:34.944Z,2.57
2022-08-01T03:01:39.094Z,1.50
2022-08-01T03:02:43.259Z,1.86
2022-08-01T03:03:46.650Z,2.14
2022-08-01T03:04:53.788Z,0.57
2022-08-01T03:05:54.519Z,2.00
2022-08-01T03:06:57.756Z,4.00
2022-08-01T03:08:02.761Z,1.71
2022-08-01T03:09:05.498Z,0.50
2022-08-01T03:10:08.780Z,0.57
2022-08-01T03:11:12.071Z,0.00
2022-08-01T03:12:15.656Z,0.86
2022-08-01T03:13:18.941Z,0.57
2022-08-01T03:14:22.432Z,0.00
2022-08-01T03:15:26.336Z,0.00
2022-08-01T03:16:29.362Z,0.00
2022-08-01T03:17:32.612Z,0.43
2022-08-01T03:18:35.837Z,0.57
2022-08-01T03:19:39.020Z,0.33
2022-08-01T03:20:42.321Z,3.00
2022-08-01T03:21:45.521Z,4.57
2022-08-01T03:22:49.018Z,1.71
2022-08-01T03:23:55.034Z,2.57
2022-08-01T03:24:56.968Z,3.50
2022-08-01T03:26:00.160Z,2.71
2022-08-01T03:27:04.527Z,2.50
2022-08-01T03:28:07.804Z,4.14
2022-08-01T03:29:10.932Z,1.57
2022-08-01T03:30:14.560Z,0.67
2022-08-01T03:31:17.945Z,0.29
2022-08-01T03:32:21.391Z,0.00
2022-08-01T03:33:24.617Z,0.00
2022-08-01T03:34:27.968Z,0.33
2022-08-01T03:35:31.287Z,1.67
2022-08-01T03:36:34.992Z,1.57
2022-08-01T03:37:49.560Z,2.43
2022-08-01T03:38:43.193Z,3.25
2022-08-01T03:39:46.432Z,1.87
2022-08-01T03:40:49.960Z,2.00
2022-08-01T03:41:56.612Z,7.00
2022-08-01T03:42:57.961Z,6.00
2022-08-01T03:44:01.145Z,1.00
2022-08-01T03:45:04.542Z,3.00
2022-08-01T03:46:07.626Z,6.29
2022-08-01T03:47:10.900Z,2.86
2022-08-01T03:48:14.387Z,0.57
2022-08-01T03:49:17.822Z,0.00
2022-08-01T03:50:21.268Z,0.00
2022-08-01T03:51:24.647Z,0.86
2022-08-01T03:52:27.998Z,1.14
2022-08-01T03:53:31.532Z,0.57
2022-08-01T03:54:34.768Z,3.00
2022-08-01T03:55:38.368Z,6.00
2022-08-01T03:56:41.691Z,2.43
2022-08-01T03:57:44.969Z,4.43
2022-08-01T03:58:49.996Z,4.00
2022-08-01T03:59:53.279Z,2.00
2022-08-01T04:00:56.809Z,1.57
2022-08-01T04:02:00.765Z,3.29
2022-08-01T04:03:04.360Z,7.50
2022-08-01T04:04:07.983Z,5.86
2022-08-01T04:05:11.162Z,2.29
2022-08-01T04:06:14.919Z,0.57
2022-08-01T04:07:18.428Z,0.00
2022-08-01T04:08:21.801Z,0.00
2022-08-01T04:09:26.324Z,0.25
2022-08-01T04:10:29.704Z,0.57
2022-08-01T04:11:33.007Z,1.33
2022-08-01T04:12:36.264Z,2.67
2022-08-01T04:13:39.431Z,2.43
2022-08-01T04:14:42.942Z,5.00
2022-08-01T04:15:46.181Z,1.57
2022-08-01T04:16:49.816Z,0.86
2022-08-01T04:17:53.209Z,0.57
2022-08-01T04:18:56.488Z,2.14
2022-08-01T04:19:59.779Z,2.86
2022-08-01T04:21:02.808Z,0.00
2022-08-01T04:22:06.102Z,1.29
2022-08-01T04:23:09.524Z,3.14
2022-08-01T04:24:12.906Z,1.14
2022-08-01T04:25:16.048Z,0.86
2022-08-01T04:26:19.480Z,1.33
2022-08-01T04:27:48.691Z,0.57
2022-08-01T04:28:27.451Z,0.00
2022-08-01T04:29:30.866Z,0.00
2022-08-01T04:30:34.047Z,0.00
2022-08-01T04:31:37.604Z,0.00
2022-08-01T04:32:40.925Z,0.43
2022-08-01T04:33:45.230Z,2.50
2022-08-01T04:34:48.616Z,3.86
2022-08-01T04:36:03.277Z,3.14
2022-08-01T04:36:56.323Z,1.00
2022-08-01T04:37:59.661Z,2.00
2022-08-01T04:39:02.740Z,0.83
2022-08-01T04:40:05.959Z,1.00
2022-08-01T04:41:09.910Z,1.14
2022-08-01T04:42:13.246Z,0.00
2022-08-01T04:43:16.736Z,0.00
2022-08-01T04:44:20.021Z,0.00
2022-08-01T04:45:23.405Z,0.00
2022-08-01T04:46:26.800Z,0.00
2022-08-01T04:47:30.043Z,0.43
2022-08-01T04:48:33.259Z,0.17
2022-08-01T04:49:48.966Z,0.00
2022-08-01T04:50:40.705Z,0.00
2022-08-01T04:51:44.243Z,0.00
2022-08-01T04:52:47.624Z,0.00
2022-08-01T04:53:51.325Z,0.00
2022-08-01T04:54:54.500Z,0.00
2022-08-01T04:55:57.988Z,0.00
2022-08-01T04:57:01.285Z,0.00
2022-08-01T04:58:04.310Z,0.00
2022-08-01T04:59:07.532Z,0.00
2022-08-01T05:00:10.712Z,0.86
2022-08-01T05:01:14.239Z,3.57
2022-08-01T05:02:17.591Z,3.29
2022-08-01T05:03:20.879Z,1.29
2022-08-01T05:04:24.119Z,1.43
2022-08-01T05:05:27.505Z,2.00
2022-08-01T05:06:30.939Z,4.71
2022-08-01T05:07:34.284Z,5.71
2022-08-01T05:08:38.935Z,1.50
2022-08-01T05:09:42.630Z,0.00
2022-08-01T05:10:45.767Z,0.50
2022-08-01T05:11:49.200Z,0.57
2022-08-01T05:12:52.440Z,0.57
2022-08-01T05:13:55.969Z,1.29
2022-08-01T05:14:59.255Z,1.14
2022-08-01T05:16:02.744Z,0.00
2022-08-01T05:17:05.884Z,0.00
2022-08-01T05:18:09.614Z,0.00
2022-08-01T05:19:12.857Z,0.00
2022-08-01T05:20:15.979Z,0.43
2022-08-01T05:21:19.265Z,0.00
2022-08-01T05:22:22.553Z,0.00
2022-08-01T05:23:34.179Z,0.00
2022-08-01T05:24:30.349Z,0.00
2022-08-01T05:25:57.880Z,0.50
2022-08-01T05:26:38.349Z,0.50
2022-08-01T05:27:41.938Z,0.00
2022-08-01T05:28:45.342Z,0.00
2022-08-01T05:29:48.612Z,0.00
2022-08-01T05:30:51.893Z,0.00
2022-08-01T05:31:55.298Z,0.00
2022-08-01T05:32:58.692Z,0.43
2022-08-01T05:34:02.259Z,0.14
2022-08-01T05:35:05.650Z,0.00
2022-08-01T05:36:08.724Z,0.00
2022-08-01T05:37:11.827Z,0.29
2022-08-01T05:38:15.174Z,0.00
2022-08-01T05:39:18.480Z,0.00
2022-08-01T05:40:21.759Z,0.00
2022-08-01T05:41:25.247Z,0.00
2022-08-01T05:42:28.386Z,0.57
2022-08-01T05:43:31.372Z,1.14
2022-08-01T05:44:34.386Z,0.00
2022-08-01T05:45:37.528Z,0.00
2022-08-01T05:46:40.759Z,0.00
2022-08-01T05:47:44.039Z,0.00
2022-08-01T05:48:47.447Z,0.00
2022-08-01T05:49:50.709Z,0.00
2022-08-01T05:50:58.067Z,0.00
2022-08-01T05:51:58.400Z,0.00
2022-08-01T05:53:01.790Z,0.71
2022-08-01T05:54:04.821Z,0.57
2022-08-01T05:55:07.899Z,0.00
2022-08-01T05:56:11.125Z,0.00
2022-08-01T05:57:15.299Z,0.00
2022-08-01T05:58:18.720Z,0.00
2022-08-01T05:59:21.900Z,0.00
2022-08-01T06:00:25.512Z,0.00
2022-08-01T06:01:28.779Z,0.00
2022-08-01T06:02:32.146Z,0.00
2022-08-01T06:03:35.547Z,0.14
2022-08-01T06:04:38.743Z,0.00
2022-08-01T06:05:41.914Z,0.00
2022-08-01T06:06:45.611Z,0.00
2022-08-01T06:07:49.001Z,0.00
2022-08-01T06:08:52.290Z,0.00
2022-08-01T06:09:55.769Z,1.29
2022-08-01T06:10:59.060Z,1.71
2022-08-01T06:12:02.784Z,0.43
2022-08-01T06:13:06.128Z,0.57
2022-08-01T06:14:09.206Z,0.43
2022-08-01T06:15:12.702Z,0.57
2022-08-01T06:16:15.801Z,0.00
2022-08-01T06:17:18.960Z,0.00
2022-08-01T06:18:22.614Z,0.50
2022-08-01T06:19:25.843Z,0.67
2022-08-01T06:20:29.138Z,0.00
2022-08-01T06:21:32.308Z,0.00
2022-08-01T06:22:35.565Z,0.00
2022-08-01T06:23:38.621Z,0.00
2022-08-01T06:24:41.947Z,0.00
2022-08-01T06:25:45.085Z,0.00
2022-08-01T06:26:48.215Z,0.43
2022-08-01T06:27:51.602Z,1.00
2022-08-01T06:28:54.782Z,1.14
2022-08-01T06:29:58.062Z,0.00
2022-08-01T06:31:01.349Z,0.00
2022-08-01T06:32:04.711Z,0.43
2022-08-01T06:33:08.328Z,4.14
2022-08-01T06:34:11.680Z,5.33
2022-08-01T06:35:14.789Z,4.29
2022-08-01T06:36:18.178Z,2.00
2022-08-01T06:37:21.680Z,1.14
2022-08-01T06:38:24.948Z,0.43
2022-08-01T06:39:28.132Z,2.71
2022-08-01T06:40:31.176Z,4.00
2022-08-01T06:41:34.396Z,1.67
2022-08-01T06:42:37.681Z,1.00
2022-08-01T06:43:40.970Z,1.00
2022-08-01T06:44:44.351Z,0.14
2022-08-01T06:45:47.733Z,0.00
2022-08-01T06:46:50.918Z,0.43
2022-08-01T06:47:54.209Z,0.57
2022-08-01T06:48:57.414Z,0.43
2022-08-01T06:50:00.768Z,1.00
2022-08-01T06:51:03.959Z,2.33
2022-08-01T06:52:07.411Z,2.57
2022-08-01T06:53:11.240Z,0.50
2022-08-01T06:54:14.419Z,0.29
2022-08-01T06:55:17.756Z,1.14
2022-08-01T06:56:20.988Z,1.43
2022-08-01T06:57:24.229Z,1.57
2022-08-01T06:58:31.592Z,1.00
2022-08-01T06:59:31.744Z,1.00
2022-08-01T07:00:34.929Z,1.00
2022-08-01T07:01:38.267Z,1.86
2022-08-01T07:02:42.410Z,1.50
2022-08-01T07:03:53.904Z,0.00
2022-08-01T07:04:49.684Z,0.00
2022-08-01T07:05:52.802Z,0.00
2022-08-01T07:06:55.964Z,0.00
2022-08-01T07:07:59.182Z,0.67
2022-08-01T07:09:08.240Z,1.67
2022-08-01T07:10:06.967Z,1.50
2022-08-01T07:11:10.142Z,1.57
2022-08-01T07:12:13.422Z,0.71
2022-08-01T07:13:16.606Z,0.67
2022-08-01T07:14:19.760Z,1.00
2022-08-01T07:15:22.827Z,1.33
2022-08-01T07:16:26.256Z,1.57
2022-08-01T07:17:29.645Z,0.57
2022-08-01T07:18:32.935Z,0.00
2022-08-01T07:19:36.207Z,0.86
2022-08-01T07:20:51.023Z,2.00
2022-08-01T07:21:45.324Z,1.00
2022-08-01T07:22:48.620Z,0.43
2022-08-01T07:23:52.929Z,0.50
2022-08-01T07:24:57.239Z,0.50
2022-08-01T07:26:01.173Z,0.71
2022-08-01T07:27:21.280Z,3.12
2022-08-01T07:28:08.839Z,2.12
2022-08-01T07:29:12.123Z,0.00
2022-08-01T07:30:15.402Z,3.00
2022-08-01T07:31:18.686Z,4.50
2022-08-01T07:32:22.173Z,0.14
2022-08-01T07:33:25.662Z,0.00
2022-08-01T07:34:28.876Z,0.43
2022-08-01T07:35:32.029Z,0.71
2022-08-01T07:36:35.206Z,0.00
2022-08-01T07:37:47.825Z,0.00
2022-08-01T07:38:42.715Z,0.00
2022-08-01T07:39:45.903Z,0.33
2022-08-01T07:40:49.146Z,1.00
2022-08-01T07:42:05.890Z,1.00
2022-08-01T07:42:56.859Z,0.50
2022-08-01T07:44:04.318Z,0.43
2022-08-01T07:45:04.346Z,0.50
2022-08-01T07:46:07.642Z,0.57
2022-08-01T07:47:10.816Z,1.00
2022-08-01T07:48:14.312Z,0.86
2022-08-01T07:49:17.575Z,0.57
2022-08-01T07:50:21.610Z,1.00
2022-08-01T07:51:24.772Z,1.14
2022-08-01T07:52:27.922Z,1.00
2022-08-01T07:53:31.242Z,1.00
2022-08-01T07:54:34.909Z,0.57
2022-08-01T07:55:38.528Z,0.00
2022-08-01T07:56:41.809Z,0.00
2022-08-01T07:57:45.305Z,0.00
2022-08-01T07:58:48.504Z,0.00
2022-08-01T07:59:51.671Z,0.43
2022-08-01T08:00:54.962Z,0.57
2022-08-01T08:01:58.327Z,0.00
2022-08-01T08:03:01.622Z,0.00
2022-08-01T08:04:05.005Z,0.00
2022-08-01T08:05:08.191Z,0.14
2022-08-01T08:06:11.468Z,0.57
2022-08-01T08:07:14.877Z,0.00
2022-08-01T08:08:18.238Z,0.00
2022-08-01T08:09:21.539Z,0.00
2022-08-01T08:10:24.705Z,0.00
2022-08-01T08:11:27.886Z,0.43
2022-08-01T08:12:32.300Z,0.50
2022-08-01T08:13:35.683Z,0.00
2022-08-01T08:14:38.931Z,0.00
2022-08-01T08:15:42.122Z,0.00
2022-08-01T08:16:46.469Z,0.00
2022-08-01T08:17:54.960Z,0.57
2022-08-01T08:18:54.047Z,0.50
2022-08-01T08:19:57.548Z,0.00
2022-08-01T08:21:04.852Z,0.50
2022-08-01T08:22:06.018Z,0.50
2022-08-01T08:23:09.407Z,0.00
2022-08-01T08:24:12.529Z,0.00
2022-08-01T08:25:16.110Z,0.00
2022-08-01T08:26:19.607Z,0.50
2022-08-01T08:27:22.744Z,0.43
2022-08-01T08:28:28.239Z,1.00
2022-08-01T08:29:30.273Z,1.00
2022-08-01T08:30:33.864Z,0.67
2022-08-01T08:31:51.354Z,0.00
2022-08-01T08:32:41.424Z,0.00
2022-08-01T08:33:44.531Z,0.33
2022-08-01T08:34:47.723Z,1.00
2022-08-01T08:35:53.862Z,1.00
2022-08-01T08:36:56.335Z,1.00
2022-08-01T08:37:59.617Z,0.57
2022-08-01T08:39:03.207Z,0.00
2022-08-01T08:40:06.390Z,0.00
2022-08-01T08:41:09.777Z,0.00
2022-08-01T08:42:13.161Z,0.00
2022-08-01T08:43:17.572Z,0.00
2022-08-01T08:44:20.773Z,0.00
2022-08-01T08:45:44.562Z,0.00
2022-08-01T08:46:28.502Z,0.62
2022-08-01T08:47:31.733Z,0.57
2022-08-01T08:48:34.919Z,0.00
2022-08-01T08:49:38.633Z,0.00
2022-08-01T08:50:42.947Z,0.00
2022-08-01T08:51:46.721Z,0.33
2022-08-01T08:52:49.998Z,0.71
2022-08-01T08:53:53.194Z,0.57
2022-08-01T08:54:56.461Z,0.33
2022-08-01T08:55:59.645Z,1.00
2022-08-01T08:57:02.930Z,1.00
2022-08-01T08:58:06.215Z,0.57
2022-08-01T08:59:09.264Z,0.00
2022-08-01T09:00:12.483Z,0.00
2022-08-01T09:01:15.658Z,0.00
2022-08-01T09:02:19.150Z,0.00
2022-08-01T09:03:22.508Z,0.43
2022-08-01T09:04:26.295Z,0.57
2022-08-01T09:05:38.770Z,0.50
2022-08-01T09:06:34.124Z,0.75
2022-08-01T09:07:37.509Z,0.57
2022-08-01T09:08:40.694Z,0.43
2022-08-01T09:09:43.978Z,1.00
2022-08-01T09:10:47.270Z,0.57
2022-08-01T09:11:56.658Z,0.00
2022-08-01T09:12:54.947Z,0.25
2022-08-01T09:13:58.447Z,0.43
2022-08-01T09:15:01.480Z,1.00
2022-08-01T09:16:04.769Z,0.67
2022-08-01T09:17:07.890Z,0.43
2022-08-01T09:18:11.446Z,0.57
2022-08-01T09:19:16.411Z,0.00
2022-08-01T09:20:18.729Z,0.50
2022-08-01T09:21:25.096Z,0.71
2022-08-01T09:22:28.166Z,0.13
2022-08-01T09:23:31.575Z,0.17
2022-08-01T09:24:34.709Z,0.00
2022-08-01T09:25:46.293Z,0.00
2022-08-01T09:26:42.162Z,0.00
2022-08-01T09:27:46.344Z,0.00
2022-08-01T09:28:49.750Z,0.00
2022-08-01T09:30:00.490Z,0.00
2022-08-01T09:30:57.309Z,0.00
2022-08-01T09:32:00.751Z,0.00
2022-08-01T09:33:06.574Z,0.00
2022-08-01T09:34:09.555Z,0.00
2022-08-01T09:35:12.698Z,0.57
2022-08-01T09:36:15.867Z,0.00
2022-08-01T09:37:19.002Z,0.33
2022-08-01T09:38:23.302Z,0.62
2022-08-01T09:39:26.686Z,1.00
2022-08-01T09:40:29.982Z,0.57
2022-08-01T09:41:37.997Z,0.00
2022-08-01T09:42:37.667Z,0.00
2022-08-01T09:43:41.025Z,0.00
2022-08-01T09:44:54.686Z,0.00
2022-08-01T09:45:49.063Z,0.13
2022-08-01T09:46:52.962Z,0.00
2022-08-01T09:47:56.339Z,0.00
2022-08-01T09:48:59.722Z,0.00
2022-08-01T09:50:10.143Z,0.00
2022-08-01T09:51:09.626Z,0.00
2022-08-01T09:52:12.652Z,0.50
2022-08-01T09:53:30.182Z,0.57
2022-08-01T09:54:20.349Z,0.50
2022-08-01T09:55:23.693Z,1.00
2022-08-01T09:56:27.034Z,0.00
2022-08-01T09:57:30.504Z,0.00
2022-08-01T09:58:34.721Z,0.00
2022-08-01T09:59:57.425Z,0.00
2022-08-01T10:00:45.666Z,0.00
2022-08-01T10:01:46.909Z,0.00
2022-08-01T10:02:51.509Z,0.00
2022-08-01T10:03:54.977Z,0.00
2022-08-01T10:05:03.284Z,0.00
2022-08-01T10:06:02.902Z,0.00
2022-08-01T10:07:06.297Z,0.00
2022-08-01T10:08:09.663Z,0.00
2022-08-01T10:09:14.140Z,0.00
2022-08-01T10:10:17.460Z,0.00
2022-08-01T10:11:20.787Z,0.00
2022-08-01T10:12:24.283Z,0.00
2022-08-01T10:13:36.531Z,0.00
2022-08-01T10:14:32.174Z,0.00
2022-08-01T10:15:37.895Z,0.00
2022-08-01T10:16:41.047Z,0.00
2022-08-01T10:17:50.423Z,0.00
2022-08-01T10:18:50.023Z,0.00
2022-08-01T10:19:54.426Z,0.00
2022-08-01T10:20:58.226Z,0.00
2022-08-01T10:22:01.720Z,0.00
2022-08-01T10:23:06.187Z,0.00
2022-08-01T10:24:09.506Z,0.00
2022-08-01T10:25:12.902Z,0.00
2022-08-01T10:26:16.970Z,0.00
2022-08-01T10:27:24.680Z,0.00
2022-08-01T10:28:24.590Z,0.00
2022-08-01T10:29:46.313Z,0.00
2022-08-01T10:30:32.796Z,0.00
2022-08-01T10:31:36.288Z,0.00
2022-08-01T10:32:41.106Z,0.00
2022-08-01T10:33:51.114Z,0.00
2022-08-01T10:34:49.322Z,0.00
2022-08-01T10:35:52.490Z,0.00
2022-08-01T10:36:56.085Z,0.00
2022-08-01T10:37:59.985Z,0.00
2022-08-01T10:39:04.299Z,0.00
2022-08-01T10:40:29.404Z,0.00
2022-08-01T10:41:11.887Z,0.37
2022-08-01T10:42:16.126Z,0.00
2022-08-01T10:43:21.742Z,0.00
2022-08-01T10:44:23.792Z,0.00
2022-08-01T10:45:30.293Z,0.00
2022-08-01T10:46:35.670Z,0.00
2022-08-01T10:47:50.016Z,0.00
2022-08-01T10:48:44.323Z,0.00
2022-08-01T10:49:47.783Z,0.00
2022-08-01T10:50:51.072Z,0.00
2022-08-01T10:51:54.948Z,0.00
2022-08-01T10:52:58.147Z,0.00
2022-08-01T10:54:02.457Z,0.00
2022-08-01T10:55:05.864Z,0.00
2022-08-01T10:56:09.028Z,0.00
2022-08-01T10:57:12.415Z,0.00
2022-08-01T10:58:16.212Z,0.29
2022-08-01T10:59:50.135Z,0.00
2022-08-01T11:00:23.698Z,0.00
2022-08-01T11:01:27.988Z,0.00
2022-08-01T11:02:32.303Z,0.00
2022-08-01T11:03:55.698Z,0.00
2022-08-01T11:04:39.857Z,0.00
2022-08-01T11:05:42.988Z,0.00
2022-08-01T11:06:47.146Z,0.00
2022-08-01T11:07:51.304Z,0.50
2022-08-01T11:08:55.617Z,0.50
2022-08-01T11:09:58.963Z,0.00
2022-08-01T11:11:02.086Z,0.00
2022-08-01T11:12:06.208Z,0.00
2022-08-01T11:13:09.716Z,0.50
2022-08-01T11:14:12.695Z,0.57
2022-08-01T11:15:16.260Z,0.00
2022-08-01T11:16:24.128Z,0.37
2022-08-01T11:17:24.950Z,0.50
2022-08-01T11:18:30.895Z,0.13
2022-08-01T11:19:33.448Z,0.00
2022-08-01T11:20:42.062Z,0.50
2022-08-01T11:21:58.606Z,0.50
2022-08-01T11:22:46.922Z,0.00
2022-08-01T11:23:50.184Z,0.29
2022-08-01T11:24:53.979Z,0.00
2022-08-01T11:26:05.345Z,0.00
2022-08-01T11:27:02.593Z,0.00
2022-08-01T11:28:06.333Z,0.00
2022-08-01T11:29:20.087Z,0.00
2022-08-01T11:30:15.010Z,0.00
2022-08-01T11:31:19.319Z,0.00
2022-08-01T11:32:22.518Z,0.00
2022-08-01T11:33:25.644Z,0.00
2022-08-01T11:34:30.098Z,0.00
2022-08-01T11:35:33.274Z,0.00
2022-08-01T11:36:58.070Z,0.00
2022-08-01T11:37:40.784Z,0.00
2022-08-01T11:38:44.765Z,0.00
2022-08-01T11:39:47.827Z,0.00
2022-08-01T11:40:52.262Z,0.00
2022-08-01T11:41:55.414Z,0.29
2022-08-01T11:42:58.619Z,0.67
2022-08-01T11:44:02.887Z,0.00
2022-08-01T11:45:06.007Z,0.00
2022-08-01T11:46:09.495Z,0.00
2022-08-01T11:47:13.282Z,0.00
2022-08-01T11:48:16.891Z,0.50
2022-08-01T11:49:20.084Z,1.00
2022-08-01T11:50:24.479Z,0.50
2022-08-01T11:51:27.768Z,0.43
2022-08-01T11:52:32.018Z,1.00
2022-08-01T11:53:35.147Z,0.57
2022-08-01T11:54:39.461Z,0.50
2022-08-01T11:55:42.740Z,1.14
2022-08-01T11:56:48.087Z,1.00
2022-08-01T11:57:51.353Z,0.75
2022-08-01T11:58:54.641Z,1.00
2022-08-01T12:00:02.431Z,0.50
2022-08-01T12:01:03.359Z,0.00
2022-08-01T12:02:06.607Z,0.43
2022-08-01T12:03:13.097Z,0.50
2022-08-01T12:04:15.341Z,0.88
2022-08-01T12:05:19.563Z,1.50
2022-08-01T12:06:22.703Z,0.57
2022-08-01T12:07:25.689Z,0.43
2022-08-01T12:08:28.986Z,1.00
2022-08-01T12:09:32.200Z,1.00
2022-08-01T12:10:35.379Z,1.00
2022-08-01T12:11:39.702Z,1.00
2022-08-01T12:12:42.967Z,1.00
2022-08-01T12:13:46.249Z,1.00
2022-08-01T12:14:49.536Z,1.00
2022-08-01T12:15:56.489Z,1.43
2022-08-01T12:16:57.024Z,1.50
2022-08-01T12:18:00.527Z,1.57
2022-08-01T12:19:03.800Z,1.00
2022-08-01T12:20:07.184Z,0.71
2022-08-01T12:21:10.367Z,1.43
2022-08-01T12:22:13.506Z,1.50
2022-08-01T12:23:16.625Z,1.17
2022-08-01T12:24:19.807Z,1.57
2022-08-01T12:25:23.003Z,1.00
2022-08-01T12:26:31.786Z,1.33
2022-08-01T12:27:30.480Z,1.62
2022-08-01T12:28:33.869Z,1.57
2022-08-01T12:29:37.364Z,1.14
2022-08-01T12:30:40.643Z,2.00
2022-08-01T12:31:43.928Z,1.67
2022-08-01T12:32:47.208Z,1.29
2022-08-01T12:33:50.494Z,1.00
2022-08-01T12:34:53.782Z,0.71
2022-08-01T12:35:56.997Z,0.43
2022-08-01T12:37:00.090Z,1.00
2022-08-01T12:38:03.222Z,1.33
2022-08-01T12:39:07.639Z,1.50
2022-08-01T12:40:10.932Z,1.00
2022-08-01T12:41:14.098Z,2.00
2022-08-01T12:42:17.377Z,1.86
2022-08-01T12:43:27.457Z,1.43
2022-08-01T12:44:24.877Z,1.00
2022-08-01T12:45:28.161Z,1.43
2022-08-01T12:46:31.333Z,2.00
2022-08-01T12:47:34.523Z,1.71
2022-08-01T12:48:37.703Z,1.57
2022-08-01T12:49:40.886Z,1.43
2022-08-01T12:50:44.164Z,2.00
2022-08-01T12:51:57.397Z,2.43
2022-08-01T12:52:51.661Z,1.50
2022-08-01T12:53:55.061Z,1.00
2022-08-01T12:54:58.595Z,1.50
2022-08-01T12:56:01.972Z,2.00
2022-08-01T12:57:05.504Z,1.57
2022-08-01T12:58:11.508Z,1.50
2022-08-01T12:59:13.307Z,2.00
2022-08-01T13:00:16.587Z,2.00
2022-08-01T13:01:19.942Z,1.57
2022-08-01T13:02:23.161Z,1.00
2022-08-01T13:03:26.304Z,2.00
2022-08-01T13:04:29.624Z,2.00
2022-08-01T13:05:34.998Z,1.86
2022-08-01T13:06:37.530Z,1.62
2022-08-01T13:07:45.528Z,1.57
2022-08-01T13:08:45.077Z,1.50
2022-08-01T13:09:48.407Z,2.00
2022-08-01T13:10:51.815Z,1.57
2022-08-01T13:12:04.570Z,1.43
2022-08-01T13:12:59.686Z,2.00
2022-08-01T13:14:03.178Z,2.00
2022-08-01T13:15:06.564Z,1.57
2022-08-01T13:16:12.216Z,1.57
2022-08-01T13:17:14.838Z,1.50
2022-08-01T13:18:18.570Z,1.50
2022-08-01T13:19:21.749Z,1.00
2022-08-01T13:20:25.043Z,1.00
2022-08-01T13:21:28.320Z,2.00
2022-08-01T13:22:31.704Z,2.67
2022-08-01T13:24:03.192Z,1.43
2022-08-01T13:24:39.501Z,1.50
2022-08-01T13:25:42.783Z,2.00
2022-08-01T13:26:46.189Z,2.00
2022-08-01T13:27:53.495Z,2.00
2022-08-01T13:28:54.082Z,1.50
2022-08-01T13:29:57.456Z,1.14
2022-08-01T13:31:00.532Z,1.00
2022-08-01T13:32:04.062Z,1.00
2022-08-01T13:33:07.266Z,1.00
2022-08-01T13:34:10.496Z,1.00
2022-08-01T13:35:13.774Z,1.43
2022-08-01T13:36:17.058Z,2.00
2022-08-01T13:37:20.858Z,1.14
2022-08-01T13:38:24.040Z,1.00
2022-08-01T13:39:27.273Z,1.00
2022-08-01T13:40:30.400Z,1.00
2022-08-01T13:41:33.690Z,1.00
2022-08-01T13:42:36.966Z,1.00
2022-08-01T13:43:58.717Z,1.00
2022-08-01T13:44:44.459Z,0.88
2022-08-01T13:45:47.742Z,0.43
2022-08-01T13:46:51.677Z,1.00
2022-08-01T13:48:03.334Z,1.00
2022-08-01T13:49:01.767Z,1.00
2022-08-01T13:50:04.259Z,1.00
2022-08-01T13:51:21.382Z,0.50
2022-08-01T13:52:12.161Z,0.50
2022-08-01T13:53:15.441Z,1.00
2022-08-01T13:54:18.642Z,1.00
2022-08-01T13:55:21.831Z,1.00
2022-08-01T13:56:24.848Z,1.57
2022-08-01T13:57:36.441Z,0.57
2022-08-01T13:58:32.759Z,0.00
2022-08-01T13:59:36.491Z,0.43
2022-08-01T14:00:39.839Z,0.88
2022-08-01T14:01:43.219Z,0.00
2022-08-01T14:02:46.643Z,0.71
2022-08-01T14:03:50.337Z,1.00
2022-08-01T14:04:53.718Z,1.00